sensor_id;sensor_type;location;lat;lon;timestamp;P1;durP1;ratioP1;P2;durP2;ratioP2
63110;SDS011;49201;53.426;10.300;2022-08-19T00:00:45;19.93;;;15.67;;
63110;SDS011;49201;53.426;10.300;2022-08-19T00:03:10;19.97;;;15.43;;
63110;SDS011;49201;53.426;10.300;2022-08-19T00:05:36;21.30;;;15.73;;
63110;SDS011;49201;53.426;10.300;2022-08-19T00:08:01;17.83;;;15.30;;
63110;SDS011;49201;53.426;10.300;2022-08-19T00:10:27;17.93;;;14.90;;
63110;SDS011;49201;53.426;10.300;2022-08-19T00:12:53;17.23;;;15.20;;
63110;SDS011;49201;53.426;10.300;2022-08-19T00:15:19;18.10;;;15.10;;
63110;SDS011;49201;53.426;10.300;2022-08-19T00:17:46;17.57;;;15.07;;
63110;SDS011;49201;53.426;10.300;2022-08-19T00:20:13;20.60;;;15.43;;
63110;SDS011;49201;53.426;10.300;2022-08-19T00:22:42;17.70;;;15.00;;
63110;SDS011;49201;53.426;10.300;2022-08-19T00:25:09;16.70;;;14.83;;
63110;SDS011;49201;53.426;10.300;2022-08-19T00:27:35;16.77;;;13.80;;
63110;SDS011;49201;53.426;10.300;2022-08-19T00:30:00;16.90;;;13.53;;
63110;SDS011;49201;53.426;10.300;2022-08-19T00:32:28;16.23;;;13.87;;
63110;SDS011;49201;53.426;10.300;2022-08-19T00:34:54;18.90;;;15.53;;
63110;SDS011;49201;53.426;10.300;2022-08-19T00:37:20;21.73;;;15.90;;
63110;SDS011;49201;53.426;10.300;2022-08-19T00:39:48;22.20;;;16.83;;
63110;SDS011;49201;53.426;10.300;2022-08-19T00:42:15;18.23;;;15.87;;
63110;SDS011;49201;53.426;10.300;2022-08-19T00:44:41;21.33;;;16.77;;
63110;SDS011;49201;53.426;10.300;2022-08-19T00:47:08;20.83;;;16.30;;
63110;SDS011;49201;53.426;10.300;2022-08-19T00:49:35;21.23;;;17.97;;
63110;SDS011;49201;53.426;10.300;2022-08-19T00:52:06;21.77;;;17.10;;
63110;SDS011;49201;53.426;10.300;2022-08-19T00:54:35;21.00;;;17.77;;
63110;SDS011;49201;53.426;10.300;2022-08-19T00:57:03;20.00;;;17.53;;
63110;SDS011;49201;53.426;10.300;2022-08-19T00:59:31;21.30;;;17.50;;
63110;SDS011;49201;53.426;10.300;2022-08-19T01:02:00;22.43;;;17.60;;
63110;SDS011;49201;53.426;10.300;2022-08-19T01:04:26;21.57;;;17.00;;
63110;SDS011;49201;53.426;10.300;2022-08-19T01:06:51;18.80;;;15.93;;
63110;SDS011;49201;53.426;10.300;2022-08-19T01:09:17;24.43;;;18.07;;
63110;SDS011;49201;53.426;10.300;2022-08-19T01:11:43;20.77;;;17.30;;
63110;SDS011;49201;53.426;10.300;2022-08-19T01:14:10;18.87;;;16.87;;
63110;SDS011;49201;53.426;10.300;2022-08-19T01:16:36;21.40;;;16.97;;
63110;SDS011;49201;53.426;10.300;2022-08-19T01:25:08;21.97;;;17.57;;
63110;SDS011;49201;53.426;10.300;2022-08-19T01:28:02;19.97;;;16.63;;
63110;SDS011;49201;53.426;10.300;2022-08-19T01:31:02;19.13;;;16.27;;
63110;SDS011;49201;53.426;10.300;2022-08-19T01:34:37;19.47;;;16.07;;
63110;SDS011;49201;53.426;10.300;2022-08-19T01:37:13;21.33;;;16.93;;
63110;SDS011;49201;53.426;10.300;2022-08-19T01:40:03;18.17;;;15.83;;
63110;SDS011;49201;53.426;10.300;2022-08-19T01:46:13;20.37;;;15.70;;
63110;SDS011;49201;53.426;10.300;2022-08-19T01:49:02;20.93;;;17.00;;
63110;SDS011;49201;53.426;10.300;2022-08-19T01:51:42;20.43;;;16.13;;
63110;SDS011;49201;53.426;10.300;2022-08-19T01:54:24;18.77;;;16.50;;
63110;SDS011;49201;53.426;10.300;2022-08-19T01:59:53;23.27;;;17.80;;
63110;SDS011;49201;53.426;10.300;2022-08-19T02:03:11;21.13;;;18.93;;
63110;SDS011;49201;53.426;10.300;2022-08-19T02:06:22;24.80;;;20.50;;
63110;SDS011;49201;53.426;10.300;2022-08-19T02:09:08;26.33;;;20.87;;
63110;SDS011;49201;53.426;10.300;2022-08-19T02:14:55;23.73;;;20.23;;
63110;SDS011;49201;53.426;10.300;2022-08-19T02:17:27;24.07;;;21.00;;
63110;SDS011;49201;53.426;10.300;2022-08-19T02:20:10;27.30;;;21.63;;
63110;SDS011;49201;53.426;10.300;2022-08-19T02:22:43;25.83;;;21.93;;
63110;SDS011;49201;53.426;10.300;2022-08-19T02:27:57;27.40;;;21.87;;
63110;SDS011;49201;53.426;10.300;2022-08-19T02:30:28;27.67;;;22.53;;
63110;SDS011;49201;53.426;10.300;2022-08-19T02:32:58;28.73;;;23.33;;
63110;SDS011;49201;53.426;10.300;2022-08-19T02:35:24;32.00;;;24.53;;
63110;SDS011;49201;53.426;10.300;2022-08-19T02:38:00;34.43;;;24.93;;
63110;SDS011;49201;53.426;10.300;2022-08-19T02:40:58;33.60;;;25.13;;
63110;SDS011;49201;53.426;10.300;2022-08-19T02:43:48;37.23;;;26.40;;
63110;SDS011;49201;53.426;10.300;2022-08-19T02:46:24;37.07;;;26.27;;
63110;SDS011;49201;53.426;10.300;2022-08-19T02:49:04;36.60;;;25.33;;
63110;SDS011;49201;53.426;10.300;2022-08-19T02:51:45;34.97;;;25.77;;
63110;SDS011;49201;53.426;10.300;2022-08-19T02:54:45;35.33;;;26.73;;
63110;SDS011;49201;53.426;10.300;2022-08-19T02:57:43;36.33;;;26.83;;
63110;SDS011;49201;53.426;10.300;2022-08-19T03:04:02;36.57;;;26.43;;
63110;SDS011;49201;53.426;10.300;2022-08-19T03:06:45;36.57;;;26.77;;
63110;SDS011;49201;53.426;10.300;2022-08-19T03:09:36;35.87;;;26.20;;
63110;SDS011;49201;53.426;10.300;2022-08-19T03:12:06;35.57;;;26.33;;
63110;SDS011;49201;53.426;10.300;2022-08-19T03:14:36;36.13;;;26.17;;
63110;SDS011;49201;53.426;10.300;2022-08-19T03:17:02;32.57;;;25.67;;
63110;SDS011;49201;53.426;10.300;2022-08-19T03:19:29;33.33;;;24.80;;
63110;SDS011;49201;53.426;10.300;2022-08-19T03:21:56;31.30;;;24.40;;
63110;SDS011;49201;53.426;10.300;2022-08-19T03:24:23;30.13;;;23.57;;
63110;SDS011;49201;53.426;10.300;2022-08-19T03:26:53;29.37;;;23.10;;
63110;SDS011;49201;53.426;10.300;2022-08-19T03:29:22;34.33;;;24.10;;
63110;SDS011;49201;53.426;10.300;2022-08-19T03:31:48;29.27;;;23.17;;
63110;SDS011;49201;53.426;10.300;2022-08-19T03:34:20;31.23;;;23.50;;
63110;SDS011;49201;53.426;10.300;2022-08-19T03:36:51;33.73;;;24.23;;
63110;SDS011;49201;53.426;10.300;2022-08-19T03:39:17;35.40;;;23.63;;
63110;SDS011;49201;53.426;10.300;2022-08-19T03:41:43;27.37;;;22.43;;
63110;SDS011;49201;53.426;10.300;2022-08-19T03:44:10;30.10;;;23.17;;
63110;SDS011;49201;53.426;10.300;2022-08-19T03:46:41;31.47;;;23.20;;
63110;SDS011;49201;53.426;10.300;2022-08-19T03:49:07;30.37;;;23.03;;
63110;SDS011;49201;53.426;10.300;2022-08-19T03:51:37;29.53;;;22.60;;
63110;SDS011;49201;53.426;10.300;2022-08-19T03:54:08;31.10;;;22.70;;
63110;SDS011;49201;53.426;10.300;2022-08-19T03:56:38;31.70;;;22.60;;
63110;SDS011;49201;53.426;10.300;2022-08-19T03:59:08;31.63;;;23.53;;
63110;SDS011;49201;53.426;10.300;2022-08-19T04:01:36;29.63;;;21.23;;
63110;SDS011;49201;53.426;10.300;2022-08-19T04:04:09;30.40;;;22.83;;
63110;SDS011;49201;53.426;10.300;2022-08-19T04:06:42;32.37;;;23.50;;
63110;SDS011;49201;53.426;10.300;2022-08-19T04:09:13;31.43;;;21.70;;
63110;SDS011;49201;53.426;10.300;2022-08-19T04:11:47;31.67;;;22.93;;
63110;SDS011;49201;53.426;10.300;2022-08-19T04:14:33;31.60;;;22.53;;
63110;SDS011;49201;53.426;10.300;2022-08-19T04:17:02;30.57;;;21.67;;
63110;SDS011;49201;53.426;10.300;2022-08-19T04:19:32;32.00;;;23.43;;
63110;SDS011;49201;53.426;10.300;2022-08-19T04:22:07;27.50;;;21.77;;
63110;SDS011;49201;53.426;10.300;2022-08-19T04:24:34;32.90;;;22.30;;
63110;SDS011;49201;53.426;10.300;2022-08-19T04:27:12;31.67;;;22.70;;
63110;SDS011;49201;53.426;10.300;2022-08-19T04:29:38;29.70;;;23.17;;
63110;SDS011;49201;53.426;10.300;2022-08-19T04:32:14;33.30;;;22.63;;
63110;SDS011;49201;53.426;10.300;2022-08-19T04:35:11;28.87;;;21.13;;
63110;SDS011;49201;53.426;10.300;2022-08-19T04:38:19;28.50;;;22.57;;
63110;SDS011;49201;53.426;10.300;2022-08-19T04:40:48;30.43;;;20.70;;
63110;SDS011;49201;53.426;10.300;2022-08-19T04:43:38;26.40;;;21.00;;
63110;SDS011;49201;53.426;10.300;2022-08-19T04:46:04;28.30;;;21.83;;
63110;SDS011;49201;53.426;10.300;2022-08-19T04:48:34;31.67;;;23.47;;
63110;SDS011;49201;53.426;10.300;2022-08-19T04:51:01;27.20;;;20.67;;
63110;SDS011;49201;53.426;10.300;2022-08-19T04:53:40;30.90;;;20.53;;
63110;SDS011;49201;53.426;10.300;2022-08-19T04:56:11;28.90;;;20.30;;
63110;SDS011;49201;53.426;10.300;2022-08-19T04:59:08;37.73;;;22.67;;
63110;SDS011;49201;53.426;10.300;2022-08-19T05:01:36;29.33;;;21.63;;
63110;SDS011;49201;53.426;10.300;2022-08-19T05:04:02;30.73;;;22.17;;
63110;SDS011;49201;53.426;10.300;2022-08-19T05:06:35;36.43;;;24.63;;
63110;SDS011;49201;53.426;10.300;2022-08-19T05:09:15;37.60;;;23.73;;
63110;SDS011;49201;53.426;10.300;2022-08-19T05:11:44;40.03;;;24.00;;
63110;SDS011;49201;53.426;10.300;2022-08-19T05:14:25;30.43;;;23.03;;
63110;SDS011;49201;53.426;10.300;2022-08-19T05:16:51;34.30;;;24.57;;
63110;SDS011;49201;53.426;10.300;2022-08-19T05:19:51;33.53;;;23.13;;
63110;SDS011;49201;53.426;10.300;2022-08-19T05:26:23;35.37;;;22.40;;
63110;SDS011;49201;53.426;10.300;2022-08-19T05:33:47;33.33;;;23.97;;
63110;SDS011;49201;53.426;10.300;2022-08-19T05:36:35;36.43;;;24.63;;
63110;SDS011;49201;53.426;10.300;2022-08-19T05:39:45;37.23;;;24.63;;
63110;SDS011;49201;53.426;10.300;2022-08-19T05:42:28;34.50;;;25.97;;
63110;SDS011;49201;53.426;10.300;2022-08-19T05:59:59;44.40;;;28.40;;
63110;SDS011;49201;53.426;10.300;2022-08-19T06:02:37;39.23;;;28.90;;
63110;SDS011;49201;53.426;10.300;2022-08-19T06:05:03;39.70;;;27.87;;
63110;SDS011;49201;53.426;10.300;2022-08-19T06:07:34;39.77;;;27.87;;
63110;SDS011;49201;53.426;10.300;2022-08-19T06:10:00;41.37;;;28.67;;
63110;SDS011;49201;53.426;10.300;2022-08-19T06:12:27;41.47;;;29.03;;
63110;SDS011;49201;53.426;10.300;2022-08-19T06:15:03;42.87;;;30.03;;
63110;SDS011;49201;53.426;10.300;2022-08-19T06:17:32;43.73;;;29.87;;
63110;SDS011;49201;53.426;10.300;2022-08-19T06:19:59;46.47;;;31.27;;
63110;SDS011;49201;53.426;10.300;2022-08-19T06:25:38;48.23;;;31.33;;
63110;SDS011;49201;53.426;10.300;2022-08-19T06:36:18;50.50;;;32.03;;
63110;SDS011;49201;53.426;10.300;2022-08-19T06:38:52;47.87;;;30.30;;
63110;SDS011;49201;53.426;10.300;2022-08-19T06:41:18;44.57;;;30.43;;
63110;SDS011;49201;53.426;10.300;2022-08-19T06:43:44;50.80;;;31.77;;
63110;SDS011;49201;53.426;10.300;2022-08-19T06:46:13;56.43;;;32.03;;
63110;SDS011;49201;53.426;10.300;2022-08-19T06:48:41;49.53;;;30.97;;
63110;SDS011;49201;53.426;10.300;2022-08-19T06:51:07;47.87;;;30.27;;
63110;SDS011;49201;53.426;10.300;2022-08-19T06:53:33;44.63;;;30.87;;
63110;SDS011;49201;53.426;10.300;2022-08-19T06:55:59;48.27;;;31.70;;
63110;SDS011;49201;53.426;10.300;2022-08-19T06:58:28;53.73;;;32.77;;
63110;SDS011;49201;53.426;10.300;2022-08-19T07:00:59;50.77;;;32.27;;
63110;SDS011;49201;53.426;10.300;2022-08-19T07:03:29;47.80;;;32.37;;
63110;SDS011;49201;53.426;10.300;2022-08-19T07:06:09;47.03;;;31.53;;
63110;SDS011;49201;53.426;10.300;2022-08-19T07:08:40;49.37;;;32.03;;
63110;SDS011;49201;53.426;10.300;2022-08-19T07:11:08;54.07;;;33.77;;
63110;SDS011;49201;53.426;10.300;2022-08-19T07:13:39;52.87;;;32.63;;
63110;SDS011;49201;53.426;10.300;2022-08-19T07:16:10;45.07;;;29.90;;
63110;SDS011;49201;53.426;10.300;2022-08-19T07:18:42;43.53;;;30.00;;
63110;SDS011;49201;53.426;10.300;2022-08-19T07:21:14;43.47;;;29.07;;
63110;SDS011;49201;53.426;10.300;2022-08-19T07:23:55;46.37;;;31.80;;
63110;SDS011;49201;53.426;10.300;2022-08-19T07:26:24;50.00;;;34.07;;
63110;SDS011;49201;53.426;10.300;2022-08-19T07:28:56;57.97;;;32.47;;
63110;SDS011;49201;53.426;10.300;2022-08-19T07:31:23;52.83;;;33.43;;
63110;SDS011;49201;53.426;10.300;2022-08-19T07:33:50;48.00;;;32.53;;
63110;SDS011;49201;53.426;10.300;2022-08-19T07:44:04;46.53;;;31.40;;
63110;SDS011;49201;53.426;10.300;2022-08-19T07:58:55;39.93;;;28.27;;
63110;SDS011;49201;53.426;10.300;2022-08-19T08:01:33;41.37;;;28.73;;
63110;SDS011;49201;53.426;10.300;2022-08-19T08:04:07;38.30;;;27.00;;
63110;SDS011;49201;53.426;10.300;2022-08-19T08:14:38;41.17;;;29.70;;
63110;SDS011;49201;53.426;10.300;2022-08-19T08:18:11;50.67;;;33.07;;
63110;SDS011;49201;53.426;10.300;2022-08-19T08:25:11;51.80;;;34.23;;
63110;SDS011;49201;53.426;10.300;2022-08-19T09:18:04;25.97;;;18.17;;
63110;SDS011;49201;53.426;10.300;2022-08-19T09:24:31;20.27;;;17.03;;
63110;SDS011;49201;53.426;10.300;2022-08-19T09:27:57;25.37;;;16.00;;
63110;SDS011;49201;53.426;10.300;2022-08-19T09:34:53;23.23;;;17.50;;
63110;SDS011;49201;53.426;10.300;2022-08-19T09:40:34;23.40;;;18.37;;
63110;SDS011;49201;53.426;10.300;2022-08-19T09:50:35;24.97;;;19.53;;
63110;SDS011;49201;53.426;10.300;2022-08-19T10:01:28;34.80;;;23.97;;
63110;SDS011;49201;53.426;10.300;2022-08-19T10:05:08;38.77;;;25.73;;
63110;SDS011;49201;53.426;10.300;2022-08-19T10:12:09;36.87;;;25.93;;
63110;SDS011;49201;53.426;10.300;2022-08-19T10:15:02;35.20;;;24.30;;
63110;SDS011;49201;53.426;10.300;2022-08-19T10:32:48;35.50;;;24.63;;
63110;SDS011;49201;53.426;10.300;2022-08-19T10:39:09;38.10;;;25.23;;
63110;SDS011;49201;53.426;10.300;2022-08-19T10:46:03;37.07;;;25.23;;
63110;SDS011;49201;53.426;10.300;2022-08-19T10:48:50;37.93;;;24.53;;
63110;SDS011;49201;53.426;10.300;2022-08-19T10:51:44;36.50;;;26.27;;
63110;SDS011;49201;53.426;10.300;2022-08-19T11:05:10;36.50;;;24.80;;
63110;SDS011;49201;53.426;10.300;2022-08-19T11:08:00;42.23;;;27.17;;
63110;SDS011;49201;53.426;10.300;2022-08-19T11:10:35;41.03;;;25.87;;
63110;SDS011;49201;53.426;10.300;2022-08-19T11:13:11;35.50;;;25.13;;
63110;SDS011;49201;53.426;10.300;2022-08-19T11:18:57;33.47;;;23.70;;
63110;SDS011;49201;53.426;10.300;2022-08-19T11:21:46;39.00;;;25.23;;
63110;SDS011;49201;53.426;10.300;2022-08-19T11:24:17;35.53;;;25.30;;
63110;SDS011;49201;53.426;10.300;2022-08-19T11:26:54;36.00;;;25.13;;
63110;SDS011;49201;53.426;10.300;2022-08-19T11:29:48;36.70;;;24.73;;
63110;SDS011;49201;53.426;10.300;2022-08-19T11:32:21;35.60;;;24.60;;
63110;SDS011;49201;53.426;10.300;2022-08-19T11:35:14;38.43;;;26.10;;
63110;SDS011;49201;53.426;10.300;2022-08-19T11:37:41;33.73;;;23.67;;
63110;SDS011;49201;53.426;10.300;2022-08-19T11:40:09;32.40;;;24.03;;
63110;SDS011;49201;53.426;10.300;2022-08-19T11:42:44;36.53;;;23.20;;
63110;SDS011;49201;53.426;10.300;2022-08-19T11:45:33;37.20;;;23.43;;
63110;SDS011;49201;53.426;10.300;2022-08-19T11:48:02;31.70;;;22.73;;
63110;SDS011;49201;53.426;10.300;2022-08-19T11:50:45;36.03;;;23.20;;
63110;SDS011;49201;53.426;10.300;2022-08-19T11:53:11;32.27;;;23.20;;
63110;SDS011;49201;53.426;10.300;2022-08-19T11:55:44;30.90;;;23.57;;
63110;SDS011;49201;53.426;10.300;2022-08-19T11:58:10;31.93;;;23.87;;
63110;SDS011;49201;53.426;10.300;2022-08-19T12:00:37;32.77;;;24.80;;
63110;SDS011;49201;53.426;10.300;2022-08-19T12:03:03;30.23;;;21.67;;
63110;SDS011;49201;53.426;10.300;2022-08-19T12:05:29;35.87;;;23.80;;
63110;SDS011;49201;53.426;10.300;2022-08-19T12:07:54;30.90;;;22.90;;
63110;SDS011;49201;53.426;10.300;2022-08-19T12:10:21;34.70;;;23.87;;
63110;SDS011;49201;53.426;10.300;2022-08-19T12:12:47;31.47;;;22.87;;
63110;SDS011;49201;53.426;10.300;2022-08-19T12:15:13;32.83;;;24.20;;
63110;SDS011;49201;53.426;10.300;2022-08-19T12:17:42;34.03;;;24.47;;
63110;SDS011;49201;53.426;10.300;2022-08-19T12:20:08;32.97;;;24.90;;
63110;SDS011;49201;53.426;10.300;2022-08-19T12:22:38;30.93;;;23.57;;
63110;SDS011;49201;53.426;10.300;2022-08-19T12:25:10;31.33;;;23.97;;
63110;SDS011;49201;53.426;10.300;2022-08-19T12:27:37;33.80;;;23.97;;
63110;SDS011;49201;53.426;10.300;2022-08-19T12:30:09;32.57;;;24.10;;
63110;SDS011;49201;53.426;10.300;2022-08-19T12:32:39;32.23;;;23.30;;
63110;SDS011;49201;53.426;10.300;2022-08-19T12:35:14;31.83;;;24.43;;
63110;SDS011;49201;53.426;10.300;2022-08-19T12:37:45;35.47;;;24.73;;
63110;SDS011;49201;53.426;10.300;2022-08-19T12:40:15;30.93;;;23.57;;
63110;SDS011;49201;53.426;10.300;2022-08-19T12:42:44;35.07;;;24.27;;
63110;SDS011;49201;53.426;10.300;2022-08-19T12:45:10;32.03;;;23.23;;
63110;SDS011;49201;53.426;10.300;2022-08-19T12:47:45;32.27;;;23.93;;
63110;SDS011;49201;53.426;10.300;2022-08-19T12:50:11;30.03;;;24.20;;
63110;SDS011;49201;53.426;10.300;2022-08-19T12:52:37;33.30;;;24.20;;
63110;SDS011;49201;53.426;10.300;2022-08-19T12:55:04;30.53;;;23.07;;
63110;SDS011;49201;53.426;10.300;2022-08-19T12:57:31;31.97;;;23.20;;
63110;SDS011;49201;53.426;10.300;2022-08-19T13:00:07;28.47;;;21.63;;
63110;SDS011;49201;53.426;10.300;2022-08-19T13:02:52;32.07;;;22.77;;
63110;SDS011;49201;53.426;10.300;2022-08-19T13:05:19;28.27;;;21.17;;
63110;SDS011;49201;53.426;10.300;2022-08-19T13:07:50;27.43;;;21.17;;
63110;SDS011;49201;53.426;10.300;2022-08-19T13:10:18;27.77;;;21.13;;
63110;SDS011;49201;53.426;10.300;2022-08-19T13:12:46;25.08;;;21.60;;
63110;SDS011;49201;53.426;10.300;2022-08-19T13:15:13;25.33;;;20.52;;
63110;SDS011;49201;53.426;10.300;2022-08-19T13:17:45;24.92;;;19.30;;
63110;SDS011;49201;53.426;10.300;2022-08-19T13:20:13;21.67;;;18.25;;
63110;SDS011;49201;53.426;10.300;2022-08-19T13:22:38;26.60;;;17.98;;
63110;SDS011;49201;53.426;10.300;2022-08-19T13:25:04;21.58;;;17.77;;
63110;SDS011;49201;53.426;10.300;2022-08-19T13:27:31;18.75;;;16.65;;
63110;SDS011;49201;53.426;10.300;2022-08-19T13:30:00;21.13;;;18.23;;
63110;SDS011;49201;53.426;10.300;2022-08-19T13:32:44;23.38;;;18.25;;
63110;SDS011;49201;53.426;10.300;2022-08-19T13:38:11;20.13;;;17.25;;
63110;SDS011;49201;53.426;10.300;2022-08-19T13:40:37;19.35;;;17.27;;
63110;SDS011;49201;53.426;10.300;2022-08-19T13:43:04;19.30;;;15.95;;
63110;SDS011;49201;53.426;10.300;2022-08-19T13:45:30;22.05;;;16.27;;
63110;SDS011;49201;53.426;10.300;2022-08-19T13:48:00;17.65;;;15.15;;
63110;SDS011;49201;53.426;10.300;2022-08-19T13:50:31;23.67;;;19.02;;
63110;SDS011;49201;53.426;10.300;2022-08-19T13:52:58;19.40;;;17.48;;
63110;SDS011;49201;53.426;10.300;2022-08-19T13:55:25;24.13;;;20.27;;
63110;SDS011;49201;53.426;10.300;2022-08-19T13:57:56;22.67;;;19.52;;
63110;SDS011;49201;53.426;10.300;2022-08-19T14:00:26;21.52;;;19.08;;
63110;SDS011;49201;53.426;10.300;2022-08-19T14:02:55;23.67;;;20.33;;
63110;SDS011;49201;53.426;10.300;2022-08-19T14:05:23;23.13;;;20.15;;
63110;SDS011;49201;53.426;10.300;2022-08-19T14:07:50;21.17;;;18.50;;
63110;SDS011;49201;53.426;10.300;2022-08-19T14:10:16;25.58;;;18.40;;
63110;SDS011;49201;53.426;10.300;2022-08-19T14:12:42;20.15;;;18.00;;
63110;SDS011;49201;53.426;10.300;2022-08-19T14:15:13;22.02;;;19.70;;
63110;SDS011;49201;53.426;10.300;2022-08-19T14:17:42;21.48;;;18.00;;
63110;SDS011;49201;53.426;10.300;2022-08-19T14:20:09;20.55;;;17.05;;
63110;SDS011;49201;53.426;10.300;2022-08-19T14:22:36;19.85;;;17.10;;
63110;SDS011;49201;53.426;10.300;2022-08-19T14:25:04;22.83;;;18.60;;
63110;SDS011;49201;53.426;10.300;2022-08-19T14:27:33;21.75;;;18.23;;
63110;SDS011;49201;53.426;10.300;2022-08-19T14:30:05;22.67;;;18.75;;
63110;SDS011;49201;53.426;10.300;2022-08-19T14:32:38;17.88;;;15.98;;
63110;SDS011;49201;53.426;10.300;2022-08-19T14:35:08;19.20;;;16.15;;
63110;SDS011;49201;53.426;10.300;2022-08-19T14:37:42;21.10;;;17.38;;
63110;SDS011;49201;53.426;10.300;2022-08-19T14:40:13;18.20;;;15.15;;
63110;SDS011;49201;53.426;10.300;2022-08-19T14:42:45;20.77;;;18.67;;
63110;SDS011;49201;53.426;10.300;2022-08-19T14:45:12;18.42;;;16.52;;
63110;SDS011;49201;53.426;10.300;2022-08-19T14:47:37;20.63;;;18.35;;
63110;SDS011;49201;53.426;10.300;2022-08-19T14:50:05;19.65;;;17.45;;
63110;SDS011;49201;53.426;10.300;2022-08-19T14:52:32;21.52;;;19.25;;
63110;SDS011;49201;53.426;10.300;2022-08-19T14:54:58;19.33;;;17.33;;
63110;SDS011;49201;53.426;10.300;2022-08-19T14:57:23;18.95;;;16.90;;
63110;SDS011;49201;53.426;10.300;2022-08-19T15:00:13;19.95;;;17.95;;
63110;SDS011;49201;53.426;10.300;2022-08-19T15:02:39;19.88;;;17.77;;
63110;SDS011;49201;53.426;10.300;2022-08-19T15:05:09;20.20;;;18.02;;
63110;SDS011;49201;53.426;10.300;2022-08-19T15:07:42;20.65;;;18.55;;
63110;SDS011;49201;53.426;10.300;2022-08-19T15:10:08;21.45;;;19.15;;
63110;SDS011;49201;53.426;10.300;2022-08-19T15:12:44;20.48;;;17.48;;
63110;SDS011;49201;53.426;10.300;2022-08-19T15:15:31;19.08;;;17.13;;
63110;SDS011;49201;53.426;10.300;2022-08-19T15:17:56;18.77;;;16.88;;
63110;SDS011;49201;53.426;10.300;2022-08-19T15:23:24;18.48;;;16.52;;
63110;SDS011;49201;53.426;10.300;2022-08-19T15:25:50;18.67;;;16.77;;
63110;SDS011;49201;53.426;10.300;2022-08-19T15:28:24;18.80;;;16.90;;
63110;SDS011;49201;53.426;10.300;2022-08-19T15:30:53;18.38;;;16.45;;
63110;SDS011;49201;53.426;10.300;2022-08-19T15:33:45;18.10;;;16.30;;
63110;SDS011;49201;53.426;10.300;2022-08-19T15:36:19;18.02;;;16.33;;
63110;SDS011;49201;53.426;10.300;2022-08-19T15:38:48;18.42;;;16.33;;
63110;SDS011;49201;53.426;10.300;2022-08-19T15:41:27;17.08;;;15.40;;
63110;SDS011;49201;53.426;10.300;2022-08-19T15:43:56;16.80;;;15.07;;
63110;SDS011;49201;53.426;10.300;2022-08-19T15:46:24;16.83;;;15.23;;
63110;SDS011;49201;53.426;10.300;2022-08-19T15:48:54;17.92;;;16.02;;
63110;SDS011;49201;53.426;10.300;2022-08-19T15:51:24;18.73;;;16.90;;
63110;SDS011;49201;53.426;10.300;2022-08-19T15:53:53;18.75;;;16.88;;
63110;SDS011;49201;53.426;10.300;2022-08-19T15:56:22;18.27;;;16.38;;
63110;SDS011;49201;53.426;10.300;2022-08-19T15:58:50;16.05;;;14.43;;
63110;SDS011;49201;53.426;10.300;2022-08-19T16:01:34;18.30;;;15.73;;
63110;SDS011;49201;53.426;10.300;2022-08-19T16:04:19;16.30;;;14.68;;
63110;SDS011;49201;53.426;10.300;2022-08-19T16:07:03;16.73;;;14.25;;
63110;SDS011;49201;53.426;10.300;2022-08-19T16:09:29;17.40;;;15.60;;
63110;SDS011;49201;53.426;10.300;2022-08-19T16:12:01;17.55;;;15.85;;
63110;SDS011;49201;53.426;10.300;2022-08-19T16:14:30;14.77;;;13.38;;
63110;SDS011;49201;53.426;10.300;2022-08-19T16:16:57;16.67;;;14.13;;
63110;SDS011;49201;53.426;10.300;2022-08-19T16:19:23;16.33;;;14.48;;
63110;SDS011;49201;53.426;10.300;2022-08-19T16:21:51;16.75;;;15.18;;
63110;SDS011;49201;53.426;10.300;2022-08-19T16:24:22;17.45;;;15.82;;
63110;SDS011;49201;53.426;10.300;2022-08-19T16:26:53;19.63;;;17.77;;
63110;SDS011;49201;53.426;10.300;2022-08-19T16:29:20;19.75;;;17.85;;
63110;SDS011;49201;53.426;10.300;2022-08-19T16:31:52;18.52;;;16.70;;
63110;SDS011;49201;53.426;10.300;2022-08-19T16:34:29;19.88;;;18.00;;
63110;SDS011;49201;53.426;10.300;2022-08-19T16:36:55;18.88;;;16.88;;
63110;SDS011;49201;53.426;10.300;2022-08-19T16:39:36;18.70;;;16.73;;
63110;SDS011;49201;53.426;10.300;2022-08-19T16:42:23;18.38;;;16.55;;
63110;SDS011;49201;53.426;10.300;2022-08-19T16:44:59;19.42;;;17.15;;
63110;SDS011;49201;53.426;10.300;2022-08-19T16:47:51;19.52;;;17.73;;
63110;SDS011;49201;53.426;10.300;2022-08-19T16:51:11;18.17;;;16.52;;
63110;SDS011;49201;53.426;10.300;2022-08-19T17:01:23;16.88;;;15.15;;
63110;SDS011;49201;53.426;10.300;2022-08-19T17:03:53;16.03;;;14.43;;
63110;SDS011;49201;53.426;10.300;2022-08-19T17:06:31;16.23;;;13.47;;
63110;SDS011;49201;53.426;10.300;2022-08-19T17:09:16;14.23;;;12.77;;
63110;SDS011;49201;53.426;10.300;2022-08-19T17:11:44;13.93;;;12.52;;
63110;SDS011;49201;53.426;10.300;2022-08-19T17:14:28;13.67;;;12.07;;
63110;SDS011;49201;53.426;10.300;2022-08-19T17:17:40;12.77;;;11.67;;
63110;SDS011;49201;53.426;10.300;2022-08-19T17:20:06;13.73;;;12.43;;
63110;SDS011;49201;53.426;10.300;2022-08-19T17:22:32;13.27;;;11.98;;
63110;SDS011;49201;53.426;10.300;2022-08-19T17:25:00;13.07;;;11.77;;
63110;SDS011;49201;53.426;10.300;2022-08-19T17:27:27;12.18;;;11.10;;
63110;SDS011;49201;53.426;10.300;2022-08-19T17:29:52;11.65;;;10.52;;
63110;SDS011;49201;53.426;10.300;2022-08-19T17:32:18;13.73;;;12.35;;
63110;SDS011;49201;53.426;10.300;2022-08-19T17:34:43;13.17;;;11.87;;
63110;SDS011;49201;53.426;10.300;2022-08-19T17:37:09;13.27;;;11.83;;
63110;SDS011;49201;53.426;10.300;2022-08-19T17:39:35;15.03;;;13.50;;
63110;SDS011;49201;53.426;10.300;2022-08-19T17:42:03;14.40;;;13.00;;
63110;SDS011;49201;53.426;10.300;2022-08-19T17:44:28;12.93;;;11.63;;
63110;SDS011;49201;53.426;10.300;2022-08-19T17:46:54;12.80;;;11.50;;
63110;SDS011;49201;53.426;10.300;2022-08-19T17:49:23;12.87;;;11.67;;
63110;SDS011;49201;53.426;10.300;2022-08-19T17:51:48;12.53;;;11.33;;
63110;SDS011;49201;53.426;10.300;2022-08-19T17:54:16;13.30;;;12.00;;
63110;SDS011;49201;53.426;10.300;2022-08-19T17:56:43;12.70;;;11.53;;
63110;SDS011;49201;53.426;10.300;2022-08-19T17:59:10;11.73;;;10.63;;
63110;SDS011;49201;53.426;10.300;2022-08-19T18:01:54;11.10;;;10.10;;
63110;SDS011;49201;53.426;10.300;2022-08-19T18:04:53;9.33;;;8.53;;
63110;SDS011;49201;53.426;10.300;2022-08-19T18:07:19;10.67;;;9.23;;
63110;SDS011;49201;53.426;10.300;2022-08-19T18:09:46;12.73;;;9.20;;
63110;SDS011;49201;53.426;10.300;2022-08-19T18:12:22;10.27;;;9.27;;
63110;SDS011;49201;53.426;10.300;2022-08-19T18:14:50;10.27;;;9.23;;
63110;SDS011;49201;53.426;10.300;2022-08-19T18:17:16;12.67;;;11.57;;
63110;SDS011;49201;53.426;10.300;2022-08-19T18:19:44;12.50;;;11.23;;
63110;SDS011;49201;53.426;10.300;2022-08-19T18:22:28;12.07;;;10.77;;
63110;SDS011;49201;53.426;10.300;2022-08-19T18:25:00;11.33;;;10.23;;
63110;SDS011;49201;53.426;10.300;2022-08-19T18:27:32;12.23;;;11.03;;